createdAt,value
2022-10-05T00:02:23.703Z,16.73
2022-10-05T00:04:56.459Z,16.71
2022-10-05T00:07:24.645Z,16.69
2022-10-05T00:09:57.163Z,16.68
2022-10-05T00:12:26.343Z,16.66
2022-10-05T00:15:00.269Z,16.73
2022-10-05T00:17:30.186Z,16.73
2022-10-05T00:19:57.012Z,16.73
2022-10-05T00:22:29.809Z,16.72
2022-10-05T00:24:58.908Z,16.77
2022-10-05T00:27:31.179Z,16.68
2022-10-05T00:30:10.864Z,16.65
2022-10-05T00:32:37.510Z,16.66
2022-10-05T00:35:04.552Z,16.66
2022-10-05T00:37:31.226Z,16.60
2022-10-05T00:39:57.915Z,16.59
2022-10-05T00:42:35.182Z,16.61
2022-10-05T00:45:14.804Z,16.61
2022-10-05T00:48:09.174Z,16.59
2022-10-05T00:50:49.097Z,16.53
2022-10-05T00:53:39.930Z,16.52
2022-10-05T00:56:06.558Z,16.50
2022-10-05T00:58:42.047Z,16.44
2022-10-05T01:01:16.637Z,16.43
2022-10-05T01:03:58.581Z,16.30
2022-10-05T01:07:13.361Z,16.26
2022-10-05T01:09:49.170Z,16.24
2022-10-05T01:12:22.729Z,16.19
2022-10-05T01:14:57.317Z,16.16
2022-10-05T01:17:32.814Z,16.18
2022-10-05T01:20:21.330Z,16.21
2022-10-05T01:23:09.572Z,16.21
2022-10-05T01:25:53.479Z,16.27
2022-10-05T01:28:27.954Z,16.32
2022-10-05T01:31:21.429Z,16.35
2022-10-05T01:34:21.222Z,16.27
2022-10-05T01:36:53.863Z,16.19
2022-10-05T01:39:26.515Z,16.14
2022-10-05T01:42:31.474Z,16.09
2022-10-05T01:45:06.252Z,16.04
2022-10-05T01:47:40.869Z,16.04
2022-10-05T01:50:38.638Z,16.07
2022-10-05T01:53:34.682Z,16.16
2022-10-05T01:56:18.415Z,16.18
2022-10-05T01:58:48.191Z,16.18
2022-10-05T02:01:25.303Z,16.21
2022-10-05T02:05:00.443Z,16.30
2022-10-05T02:07:28.813Z,16.33
2022-10-05T02:10:05.939Z,16.30
2022-10-05T02:12:37.109Z,16.33
2022-10-05T02:15:14.939Z,16.30
2022-10-05T02:17:48.319Z,16.26
2022-10-05T02:20:23.697Z,16.26
2022-10-05T02:22:54.729Z,16.28
2022-10-05T02:25:27.352Z,16.25
2022-10-05T02:28:01.116Z,16.25
2022-10-05T02:30:31.546Z,16.19
2022-10-05T02:33:08.371Z,16.14
2022-10-05T02:35:35.089Z,16.11
2022-10-05T02:38:10.750Z,16.12
2022-10-05T02:40:52.667Z,16.08
2022-10-05T02:43:46.284Z,16.01
2022-10-05T02:46:19.058Z,15.94
2022-10-05T02:49:14.490Z,15.85
2022-10-05T02:51:47.287Z,15.80
2022-10-05T02:54:32.632Z,15.76
2022-10-05T02:57:06.445Z,15.77
2022-10-05T02:59:43.308Z,15.79
2022-10-05T03:02:13.821Z,15.85
2022-10-05T03:04:46.773Z,15.89
2022-10-05T03:07:33.444Z,15.91
2022-10-05T03:10:36.470Z,15.98
2022-10-05T03:13:16.757Z,15.97
2022-10-05T03:16:01.972Z,16.01
2022-10-05T03:18:40.433Z,16.00
2022-10-05T03:21:35.931Z,15.99
2022-10-05T03:24:18.211Z,16.05
2022-10-05T03:27:01.059Z,16.11
2022-10-05T03:29:56.702Z,16.12
2022-10-05T03:32:32.305Z,16.03
2022-10-05T03:35:18.012Z,16.06
2022-10-05T03:37:59.167Z,16.12
2022-10-05T03:40:47.273Z,16.15
2022-10-05T03:43:26.939Z,16.18
2022-10-05T03:46:08.612Z,16.23
2022-10-05T03:48:55.126Z,16.27
2022-10-05T03:51:29.630Z,16.21
2022-10-05T03:54:05.594Z,16.22
2022-10-05T03:56:41.770Z,16.33
2022-10-05T03:59:31.551Z,16.36
2022-10-05T04:02:07.878Z,16.47
2022-10-05T04:04:44.142Z,16.50
2022-10-05T04:07:23.813Z,16.50
2022-10-05T04:09:53.001Z,16.58
2022-10-05T04:12:30.682Z,16.60
2022-10-05T04:15:02.921Z,16.60
2022-10-05T04:17:42.333Z,16.55
2022-10-05T04:20:38.060Z,16.55
2022-10-05T04:23:19.245Z,16.47
2022-10-05T04:25:53.934Z,16.53
2022-10-05T04:28:37.546Z,16.57
2022-10-05T04:31:07.038Z,16.62
2022-10-05T04:33:34.541Z,16.54
2022-10-05T04:36:12.796Z,16.54
2022-10-05T04:38:47.541Z,16.56
2022-10-05T04:41:49.698Z,16.52
2022-10-05T04:44:31.357Z,16.53
2022-10-05T04:47:04.214Z,16.44
2022-10-05T04:49:43.124Z,16.47
2022-10-05T04:52:28.175Z,16.46
2022-10-05T04:55:08.606Z,16.49
2022-10-05T04:57:49.505Z,16.56
2022-10-05T05:00:28.613Z,16.62
2022-10-05T05:03:21.734Z,16.63
2022-10-05T05:06:18.377Z,16.62
2022-10-05T05:09:10.940Z,16.73
2022-10-05T05:11:52.982Z,16.76
2022-10-05T05:14:28.995Z,16.61
2022-10-05T05:17:13.316Z,16.58
2022-10-05T05:20:01.857Z,16.43
2022-10-05T05:22:53.841Z,16.47
2022-10-05T05:25:35.597Z,16.70
2022-10-05T05:28:30.546Z,16.71
2022-10-05T05:31:30.611Z,16.76
2022-10-05T05:34:01.390Z,16.87
2022-10-05T05:36:54.592Z,16.91
2022-10-05T05:39:36.862Z,16.92
2022-10-05T05:42:47.207Z,16.92
2022-10-05T05:45:29.792Z,16.99
2022-10-05T05:47:59.480Z,17.00
2022-10-05T05:50:48.693Z,17.04
2022-10-05T05:53:29.513Z,17.00
2022-10-05T05:56:05.272Z,17.03
2022-10-05T05:58:39.942Z,17.08
2022-10-05T06:01:44.156Z,17.05
2022-10-05T06:04:28.238Z,17.09
2022-10-05T06:06:58.066Z,17.09
2022-10-05T06:09:44.512Z,17.16
2022-10-05T06:12:41.347Z,16.94
2022-10-05T06:15:41.863Z,16.98
2022-10-05T06:18:16.105Z,17.00
2022-10-05T06:20:53.202Z,17.04
2022-10-05T06:23:27.417Z,16.95
2022-10-05T06:26:11.090Z,16.99
2022-10-05T06:28:41.491Z,17.09
2022-10-05T06:31:46.159Z,16.98
2022-10-05T06:34:31.285Z,16.95
2022-10-05T06:37:18.702Z,16.85
2022-10-05T06:39:51.911Z,16.78
2022-10-05T06:42:38.859Z,16.84
2022-10-05T06:45:48.235Z,16.99
2022-10-05T06:48:54.157Z,17.02
2022-10-05T06:51:37.900Z,16.91
2022-10-05T06:54:45.702Z,16.84
2022-10-05T06:57:32.817Z,16.88
2022-10-05T07:00:21.918Z,16.99
2022-10-05T07:03:24.960Z,17.04
2022-10-05T07:06:25.797Z,17.15
2022-10-05T07:09:27.164Z,17.27
2022-10-05T07:12:05.407Z,17.29
2022-10-05T07:14:50.262Z,17.40
2022-10-05T07:17:28.828Z,17.57
2022-10-05T07:20:01.982Z,17.68
2022-10-05T07:22:38.087Z,17.70
2022-10-05T07:25:23.494Z,17.73
2022-10-05T07:28:05.427Z,17.77
2022-10-05T07:30:41.566Z,17.93
2022-10-05T07:33:17.842Z,17.99
2022-10-05T07:36:20.143Z,18.02
2022-10-05T07:39:06.041Z,17.98
2022-10-05T07:41:47.545Z,18.11
2022-10-05T07:44:22.555Z,18.17
2022-10-05T07:46:58.654Z,18.40
2022-10-05T07:49:40.440Z,18.58
2022-10-05T07:52:34.926Z,18.43
2022-10-05T07:55:17.750Z,18.61
2022-10-05T07:57:48.524Z,18.62
2022-10-05T08:00:22.370Z,18.66
2022-10-05T08:03:14.095Z,18.99
2022-10-05T08:05:42.562Z,18.86
2022-10-05T08:08:23.949Z,19.02
2022-10-05T08:11:11.190Z,19.22
2022-10-05T08:13:45.659Z,19.33
2022-10-05T08:16:13.287Z,19.49
2022-10-05T08:18:58.136Z,19.29
2022-10-05T08:21:35.456Z,19.53
2022-10-05T08:24:30.681Z,19.70
2022-10-05T08:27:12.146Z,19.70
2022-10-05T08:29:54.021Z,19.94
2022-10-05T08:32:27.903Z,19.97
2022-10-05T08:35:17.771Z,19.99
2022-10-05T08:37:46.156Z,19.85
2022-10-05T08:40:34.076Z,19.62
2022-10-05T08:43:36.234Z,19.72
2022-10-05T08:46:11.793Z,19.80
2022-10-05T08:48:56.205Z,19.94
2022-10-05T08:51:41.558Z,20.08
2022-10-05T08:54:40.439Z,20.21
2022-10-05T08:57:22.105Z,20.41
2022-10-05T09:00:00.546Z,20.25
2022-10-05T09:02:50.330Z,20.17
2022-10-05T09:05:58.342Z,20.16
2022-10-05T09:08:46.118Z,20.18
2022-10-05T09:11:17.038Z,20.25
2022-10-05T09:14:05.145Z,20.20
2022-10-05T09:16:42.691Z,20.41
2022-10-05T09:19:46.926Z,20.60
2022-10-05T09:22:47.430Z,20.72
2022-10-05T09:25:18.437Z,20.66
2022-10-05T09:28:25.246Z,20.83
2022-10-05T09:31:29.881Z,20.94
2022-10-05T09:34:05.349Z,21.04
2022-10-05T09:37:13.958Z,21.10
2022-10-05T09:40:05.500Z,21.01
2022-10-05T09:43:00.027Z,20.98
2022-10-05T09:45:45.317Z,20.99
2022-10-05T09:48:36.653Z,21.15
2022-10-05T09:51:15.340Z,21.33
2022-10-05T09:54:03.787Z,21.36
2022-10-05T09:56:45.795Z,21.43
2022-10-05T09:59:38.091Z,21.51
2022-10-05T10:02:18.431Z,21.67
2022-10-05T10:05:10.099Z,21.81
2022-10-05T10:08:07.272Z,21.62
2022-10-05T10:10:49.672Z,21.79
2022-10-05T10:13:28.414Z,21.96
2022-10-05T10:16:16.424Z,22.26
2022-10-05T10:18:45.966Z,22.63
2022-10-05T10:21:37.569Z,22.54
2022-10-05T10:24:30.433Z,22.75
2022-10-05T10:27:36.126Z,22.84
2022-10-05T10:30:25.139Z,23.12
2022-10-05T10:33:19.201Z,23.31
2022-10-05T10:36:00.489Z,24.79
2022-10-05T10:38:58.468Z,27.23
2022-10-05T10:41:30.435Z,27.58
2022-10-05T10:44:29.352Z,28.71
2022-10-05T10:47:14.749Z,30.12
2022-10-05T10:49:44.091Z,31.00
2022-10-05T10:52:45.161Z,30.69
2022-10-05T10:55:30.905Z,31.91
2022-10-05T10:58:39.801Z,32.49
2022-10-05T11:01:21.844Z,33.96
2022-10-05T11:04:27.237Z,35.31
2022-10-05T11:07:30.335Z,36.79
2022-10-05T11:10:21.916Z,37.18
2022-10-05T11:13:11.704Z,37.49
2022-10-05T11:16:00.778Z,37.45
2022-10-05T11:18:48.933Z,38.24
2022-10-05T11:21:31.715Z,39.07
2022-10-05T11:24:34.573Z,38.56
2022-10-05T11:27:25.784Z,39.41
2022-10-05T11:30:11.585Z,40.59
2022-10-05T11:32:56.783Z,40.03
2022-10-05T11:35:51.445Z,40.86
2022-10-05T11:38:58.926Z,41.60
2022-10-05T11:42:06.743Z,41.20
2022-10-05T11:45:01.447Z,41.66
2022-10-05T11:47:32.414Z,41.74
2022-10-05T11:50:24.497Z,41.39
2022-10-05T11:53:12.865Z,40.30
2022-10-05T11:55:45.515Z,40.57
2022-10-05T11:58:54.184Z,40.02
2022-10-05T12:01:36.325Z,39.69
2022-10-05T12:04:18.290Z,38.82
2022-10-05T12:06:53.544Z,38.19
2022-10-05T12:10:05.427Z,37.76
2022-10-05T12:13:08.572Z,35.74
2022-10-05T12:15:51.662Z,34.39
2022-10-05T12:18:30.242Z,33.16
2022-10-05T12:21:02.651Z,32.54
2022-10-05T12:23:40.106Z,32.16
2022-10-05T12:26:11.799Z,31.93
2022-10-05T12:28:46.858Z,31.39
2022-10-05T12:31:16.421Z,31.03
2022-10-05T12:34:01.736Z,30.96
2022-10-05T12:37:02.996Z,31.03
2022-10-05T12:39:54.570Z,30.79
2022-10-05T12:42:59.582Z,30.61
2022-10-05T12:45:47.570Z,30.47
2022-10-05T12:48:40.004Z,30.48
2022-10-05T12:51:19.765Z,30.19
2022-10-05T12:54:03.171Z,29.84
2022-10-05T12:56:44.551Z,29.88
2022-10-05T12:59:21.912Z,29.85
2022-10-05T13:02:01.437Z,30.00
2022-10-05T13:04:55.654Z,29.72
2022-10-05T13:07:54.561Z,29.93
2022-10-05T13:10:36.279Z,29.53
2022-10-05T13:13:15.255Z,29.66
2022-10-05T13:15:54.623Z,29.65
2022-10-05T13:18:40.162Z,29.33
2022-10-05T13:21:24.674Z,29.07
2022-10-05T13:24:20.088Z,29.24
2022-10-05T13:26:53.543Z,29.20
2022-10-05T13:29:45.510Z,29.12
2022-10-05T13:32:21.269Z,29.06
2022-10-05T13:35:04.224Z,28.88
2022-10-05T13:38:08.069Z,29.05
2022-10-05T13:41:07.191Z,29.04
2022-10-05T13:43:44.783Z,29.17
2022-10-05T13:46:40.555Z,29.06
2022-10-05T13:49:21.778Z,28.92
2022-10-05T13:52:19.527Z,29.09
2022-10-05T13:55:01.616Z,29.05
2022-10-05T13:57:46.564Z,29.04
2022-10-05T14:00:15.950Z,28.92
2022-10-05T14:02:47.079Z,29.06
2022-10-05T14:05:20.176Z,28.89
2022-10-05T14:07:55.221Z,28.70
2022-10-05T14:10:36.516Z,28.35
2022-10-05T14:13:20.789Z,28.28
2022-10-05T14:16:12.296Z,28.15
2022-10-05T14:19:07.811Z,28.09
2022-10-05T14:21:58.842Z,28.17
2022-10-05T14:24:49.452Z,28.09
2022-10-05T14:27:29.716Z,28.09
2022-10-05T14:30:00.449Z,28.09
2022-10-05T14:32:31.999Z,27.61
2022-10-05T14:35:10.621Z,27.78
2022-10-05T14:37:51.254Z,27.64
2022-10-05T14:40:25.387Z,27.79
2022-10-05T14:42:52.449Z,27.86
2022-10-05T14:45:29.858Z,27.93
2022-10-05T14:48:09.348Z,27.87
2022-10-05T14:50:52.316Z,27.81
2022-10-05T14:53:22.334Z,27.59
2022-10-05T14:55:57.667Z,27.66
2022-10-05T14:59:08.437Z,27.84
2022-10-05T15:01:40.221Z,27.76
2022-10-05T15:04:33.840Z,27.89
2022-10-05T15:07:20.084Z,27.80
2022-10-05T15:10:02.358Z,27.58
2022-10-05T15:12:38.463Z,27.60
2022-10-05T15:15:25.670Z,27.58
2022-10-05T15:18:19.666Z,27.56
2022-10-05T15:21:23.849Z,27.04
2022-10-05T15:23:59.272Z,27.09
2022-10-05T15:26:45.887Z,26.97
2022-10-05T15:29:36.113Z,27.11
2022-10-05T15:32:03.242Z,27.04
2022-10-05T15:34:52.178Z,26.82
2022-10-05T15:37:55.084Z,26.71
2022-10-05T15:40:30.534Z,26.86
2022-10-05T15:43:03.881Z,26.77
2022-10-05T15:45:33.895Z,26.84
2022-10-05T15:48:23.951Z,26.74
2022-10-05T15:51:16.943Z,26.74
2022-10-05T15:53:43.754Z,26.65
2022-10-05T15:56:23.331Z,26.53
2022-10-05T15:58:50.239Z,26.38
2022-10-05T16:01:19.981Z,26.42
2022-10-05T16:03:58.251Z,26.36
2022-10-05T16:07:08.486Z,26.21
2022-10-05T16:10:05.189Z,25.90
2022-10-05T16:12:50.554Z,25.89
2022-10-05T16:15:34.586Z,25.89
2022-10-05T16:18:01.559Z,25.84
2022-10-05T16:20:47.414Z,25.80
2022-10-05T16:23:41.734Z,25.72
2022-10-05T16:26:38.484Z,25.50
2022-10-05T16:29:29.971Z,25.47
2022-10-05T16:32:21.310Z,25.27
2022-10-05T16:35:08.618Z,25.23
2022-10-05T16:37:46.068Z,25.19
2022-10-05T16:40:41.597Z,25.23
2022-10-05T16:43:16.876Z,25.11
2022-10-05T16:45:51.745Z,25.01
2022-10-05T16:48:31.800Z,25.02
2022-10-05T16:51:16.803Z,25.00
2022-10-05T16:53:45.402Z,24.90
2022-10-05T16:56:17.212Z,24.64
2022-10-05T16:58:52.960Z,24.71
2022-10-05T17:01:43.629Z,24.61
2022-10-05T17:04:24.510Z,24.48
2022-10-05T17:07:03.170Z,24.48
2022-10-05T17:09:48.686Z,24.34
2022-10-05T17:12:45.500Z,24.34
2022-10-05T17:15:41.167Z,24.39
2022-10-05T17:18:20.265Z,24.22
2022-10-05T17:20:49.959Z,24.18
2022-10-05T17:23:26.691Z,24.21
2022-10-05T17:25:56.074Z,24.12
2022-10-05T17:28:44.710Z,24.04
2022-10-05T17:31:22.438Z,24.03
2022-10-05T17:34:11.142Z,23.95
2022-10-05T17:36:42.794Z,23.97
2022-10-05T17:39:20.118Z,23.97
2022-10-05T17:41:47.589Z,23.85
2022-10-05T17:44:19.075Z,23.86
2022-10-05T17:46:51.865Z,23.96
2022-10-05T17:49:43.069Z,23.94
2022-10-05T17:52:43.748Z,23.76
2022-10-05T17:55:26.653Z,23.61
2022-10-05T17:57:58.489Z,23.48
2022-10-05T18:00:31.359Z,23.46
2022-10-05T18:02:58.327Z,23.48
2022-10-05T18:05:28.017Z,23.47
2022-10-05T18:08:13.053Z,23.43
2022-10-05T18:11:10.951Z,23.28
2022-10-05T18:13:44.641Z,23.36
2022-10-05T18:16:11.797Z,23.40
2022-10-05T18:18:44.646Z,23.34
2022-10-05T18:21:14.398Z,23.08
2022-10-05T18:24:03.035Z,23.32
2022-10-05T18:27:02.420Z,23.35
2022-10-05T18:30:03.328Z,23.45
2022-10-05T18:32:39.800Z,23.44
2022-10-05T18:35:15.080Z,23.34
2022-10-05T18:38:03.259Z,23.21
2022-10-05T18:40:46.919Z,23.42
2022-10-05T18:43:40.869Z,23.34
2022-10-05T18:46:21.851Z,23.43
2022-10-05T18:49:16.289Z,23.44
2022-10-05T18:51:55.194Z,23.22
2022-10-05T18:54:25.935Z,23.41
2022-10-05T18:56:53.078Z,23.49
2022-10-05T18:59:34.828Z,23.39
2022-10-05T19:02:14.931Z,23.40
2022-10-05T19:04:52.527Z,23.32
2022-10-05T19:07:45.498Z,23.25
2022-10-05T19:10:18.992Z,23.19
2022-10-05T19:13:00.797Z,23.26
2022-10-05T19:15:53.928Z,23.40
2022-10-05T19:18:43.710Z,23.27
2022-10-05T19:21:37.854Z,23.38
2022-10-05T19:24:40.545Z,23.28
2022-10-05T19:27:32.588Z,23.35
2022-10-05T19:30:23.933Z,23.42
2022-10-05T19:33:18.213Z,23.31
2022-10-05T19:35:58.417Z,23.30
2022-10-05T19:38:55.482Z,23.28
2022-10-05T19:41:47.321Z,23.34
2022-10-05T19:44:25.637Z,23.41
2022-10-05T19:47:24.019Z,23.45
2022-10-05T19:49:55.279Z,23.33
2022-10-05T19:52:31.053Z,22.90
2022-10-05T19:55:24.919Z,23.13
2022-10-05T19:58:01.212Z,23.18
2022-10-05T20:00:32.379Z,23.17
2022-10-05T20:03:11.936Z,23.20
2022-10-05T20:05:39.944Z,23.04
2022-10-05T20:08:07.867Z,23.09
2022-10-05T20:10:34.835Z,23.02
2022-10-05T20:13:04.453Z,23.03
2022-10-05T20:15:52.347Z,23.10
2022-10-05T20:18:57.762Z,23.10
2022-10-05T20:21:45.755Z,23.02
2022-10-05T20:24:15.650Z,22.96
2022-10-05T20:27:06.489Z,22.88
2022-10-05T20:29:35.415Z,22.82
2022-10-05T20:32:07.899Z,22.80
2022-10-05T20:34:42.626Z,22.78
2022-10-05T20:37:11.508Z,22.71
2022-10-05T20:39:39.453Z,22.60
2022-10-05T20:42:07.357Z,22.57
2022-10-05T20:44:36.517Z,22.53
2022-10-05T20:47:04.320Z,22.38
2022-10-05T20:49:31.839Z,22.50
2022-10-05T20:51:58.849Z,22.40
2022-10-05T20:54:26.677Z,22.38
2022-10-05T20:56:55.580Z,22.33
2022-10-05T20:59:24.174Z,22.37
2022-10-05T21:01:51.554Z,22.37
2022-10-05T21:04:20.647Z,22.27
2022-10-05T21:06:47.425Z,22.30
2022-10-05T21:09:15.492Z,22.25
2022-10-05T21:11:42.699Z,22.24
2022-10-05T21:14:11.365Z,22.21
2022-10-05T21:16:40.766Z,22.15
2022-10-05T21:19:12.441Z,22.04
2022-10-05T21:21:40.535Z,22.02
2022-10-05T21:24:08.001Z,21.99
2022-10-05T21:26:34.712Z,21.92
2022-10-05T21:29:01.963Z,21.94
2022-10-05T21:31:29.495Z,21.95
2022-10-05T21:33:56.586Z,22.03
2022-10-05T21:36:24.737Z,22.09
2022-10-05T21:38:53.452Z,22.16
2022-10-05T21:41:21.737Z,22.16
2022-10-05T21:43:48.875Z,22.01
2022-10-05T21:46:21.855Z,22.22
2022-10-05T21:48:49.774Z,22.22
2022-10-05T21:51:18.799Z,22.17
2022-10-05T21:54:13.639Z,22.30
2022-10-05T21:56:44.133Z,22.26
2022-10-05T21:59:14.724Z,22.22
2022-10-05T22:01:41.362Z,22.21
2022-10-05T22:04:08.121Z,22.24
2022-10-05T22:06:36.008Z,22.09
2022-10-05T22:09:05.305Z,22.16
2022-10-05T22:11:32.880Z,22.17
2022-10-05T22:14:02.651Z,22.20
2022-10-05T22:16:32.747Z,22.03
2022-10-05T22:19:03.701Z,22.06
2022-10-05T22:21:32.801Z,21.86
2022-10-05T22:24:02.309Z,21.86
2022-10-05T22:26:29.282Z,21.87
2022-10-05T22:28:56.930Z,21.82
2022-10-05T22:31:23.763Z,21.94
2022-10-05T22:33:50.521Z,21.74
2022-10-05T22:36:17.476Z,21.74
2022-10-05T22:38:46.397Z,21.56
2022-10-05T22:41:14.659Z,21.58
2022-10-05T22:43:41.339Z,21.66
2022-10-05T22:46:12.295Z,21.57
2022-10-05T22:48:39.956Z,21.56
2022-10-05T22:51:07.576Z,21.51
2022-10-05T22:53:34.982Z,21.43
2022-10-05T22:56:06.423Z,21.28
2022-10-05T22:58:33.042Z,21.57
2022-10-05T23:01:02.143Z,21.40
2022-10-05T23:03:29.066Z,21.39
2022-10-05T23:06:00.152Z,21.40
2022-10-05T23:08:27.347Z,21.16
2022-10-05T23:10:54.249Z,21.38
2022-10-05T23:13:22.324Z,21.34
2022-10-05T23:15:49.077Z,21.45
2022-10-05T23:18:16.626Z,21.35
2022-10-05T23:20:43.320Z,21.30
2022-10-05T23:23:10.051Z,21.33
2022-10-05T23:25:36.806Z,21.29
2022-10-05T23:28:03.506Z,21.15
2022-10-05T23:30:30.297Z,21.15
2022-10-05T23:32:57.005Z,21.12
2022-10-05T23:35:23.645Z,21.18
2022-10-05T23:37:50.284Z,21.28
2022-10-05T23:40:16.971Z,21.01
2022-10-05T23:42:43.606Z,21.08
2022-10-05T23:45:11.867Z,21.01
2022-10-05T23:47:39.926Z,20.93
2022-10-05T23:50:08.446Z,20.84
2022-10-05T23:52:35.564Z,20.90
2022-10-05T23:55:04.321Z,20.96
2022-10-05T23:57:31.380Z,20.95
2022-10-05T23:59:58.008Z,20.86
